Main page
METAR-TAF:

METAR-TAF

Airports :

Bellingham International Airport

Bellingham, Washington, United States

latitude: 48-47-58N, longitude: 122-32-21W, elevation: 48 m

Current weather observation

The report was made 34 minutes ago, at 08:53 UTC
Calm wind
Temperature 16°C
Humidity 100%
Pressure 1013 hPa
Visibility: 16.1 km
Clear sky

METAR: KBLI 170853Z AUTO 00000KT 10SM CLR 16/16 A2991 RMK AO2 SLP134 T01560156 50004

Time: 02:27 (09:27 UTC)

Forecast

The report was made 4 hours and 3 minutes ago, at 05:24 UTC
Forecast valid from 17 at 06 UTC to 18 at 06 UTC
Wind 3 kt from variable directions
Visibility: 10 km
Clear sky
From 17 at 1800 UTC
Wind 5 kt from the South/Southwest
Visibility: 10 km
Scattered clouds at a height of 15000 ft

TAF: KBLI 170524Z 1706/1806 VRB03KT P6SM SKC FM171800 21005KT P6SM SCT150

Weather observations and forecasts of more than 4000 airports (METAR and TAF reports).

The available stations are represented by yellow and red dots on the map.

Hover mouse over dot to see the name of the station.

Then click to see weather observations and forecasts.

To change the map : click on the green buttons with a black cross to zoom in, on the green button with a dash to zoom out, or on the green arrows for adjacent maps.


METAR-TAF: